sensor_id;sensor_type;location;lat;lon;timestamp;P1;durP1;ratioP1;P2;durP2;ratioP2
13571;SDS011;6857;53.484;10.216;2023-01-13T00:02:23;1.23;;;1.13;;
13571;SDS011;6857;53.484;10.216;2023-01-13T00:04:49;1.23;;;1.07;;
13571;SDS011;6857;53.484;10.216;2023-01-13T00:07:15;1.30;;;1.10;;
13571;SDS011;6857;53.484;10.216;2023-01-13T00:09:41;1.40;;;1.20;;
13571;SDS011;6857;53.484;10.216;2023-01-13T00:12:07;1.23;;;1.10;;
13571;SDS011;6857;53.484;10.216;2023-01-13T00:14:33;1.50;;;1.40;;
13571;SDS011;6857;53.484;10.216;2023-01-13T00:16:59;1.43;;;1.33;;
13571;SDS011;6857;53.484;10.216;2023-01-13T00:19:25;1.13;;;1.03;;
13571;SDS011;6857;53.484;10.216;2023-01-13T00:21:51;1.33;;;1.07;;
13571;SDS011;6857;53.484;10.216;2023-01-13T00:24:17;1.53;;;1.10;;
13571;SDS011;6857;53.484;10.216;2023-01-13T00:26:43;1.23;;;1.10;;
13571;SDS011;6857;53.484;10.216;2023-01-13T00:29:09;3.37;;;1.20;;
13571;SDS011;6857;53.484;10.216;2023-01-13T00:31:35;2.50;;;1.10;;
13571;SDS011;6857;53.484;10.216;2023-01-13T00:34:01;3.00;;;0.90;;
13571;SDS011;6857;53.484;10.216;2023-01-13T00:36:28;4.00;;;0.80;;
13571;SDS011;6857;53.484;10.216;2023-01-13T00:38:55;3.13;;;1.00;;
13571;SDS011;6857;53.484;10.216;2023-01-13T00:41:21;1.30;;;0.60;;
13571;SDS011;6857;53.484;10.216;2023-01-13T00:43:48;3.17;;;0.80;;
13571;SDS011;6857;53.484;10.216;2023-01-13T00:46:16;5.30;;;0.60;;
13571;SDS011;6857;53.484;10.216;2023-01-13T00:48:42;3.23;;;0.70;;
13571;SDS011;6857;53.484;10.216;2023-01-13T00:51:15;2.23;;;0.77;;
13571;SDS011;6857;53.484;10.216;2023-01-13T00:53:42;2.40;;;0.93;;
13571;SDS011;6857;53.484;10.216;2023-01-13T00:56:12;6.83;;;1.20;;
13571;SDS011;6857;53.484;10.216;2023-01-13T00:58:39;1.73;;;0.87;;
13571;SDS011;6857;53.484;10.216;2023-01-13T01:01:06;2.30;;;0.70;;
13571;SDS011;6857;53.484;10.216;2023-01-13T01:03:32;3.80;;;0.77;;
13571;SDS011;6857;53.484;10.216;2023-01-13T01:06:11;4.03;;;1.23;;
13571;SDS011;6857;53.484;10.216;2023-01-13T01:08:38;3.17;;;0.97;;
13571;SDS011;6857;53.484;10.216;2023-01-13T01:11:08;3.87;;;0.90;;
13571;SDS011;6857;53.484;10.216;2023-01-13T01:13:34;6.73;;;1.00;;
13571;SDS011;6857;53.484;10.216;2023-01-13T01:16:05;1.93;;;0.80;;
13571;SDS011;6857;53.484;10.216;2023-01-13T01:18:34;3.00;;;0.80;;
13571;SDS011;6857;53.484;10.216;2023-01-13T01:21:00;1.70;;;0.70;;
13571;SDS011;6857;53.484;10.216;2023-01-13T01:23:27;2.73;;;0.97;;
13571;SDS011;6857;53.484;10.216;2023-01-13T01:25:53;1.83;;;0.70;;
13571;SDS011;6857;53.484;10.216;2023-01-13T01:28:19;3.63;;;0.93;;
13571;SDS011;6857;53.484;10.216;2023-01-13T01:30:45;3.07;;;1.10;;
13571;SDS011;6857;53.484;10.216;2023-01-13T01:33:11;2.10;;;1.00;;
13571;SDS011;6857;53.484;10.216;2023-01-13T01:35:40;6.47;;;1.33;;
13571;SDS011;6857;53.484;10.216;2023-01-13T01:38:06;4.43;;;1.30;;
13571;SDS011;6857;53.484;10.216;2023-01-13T01:40:32;5.30;;;1.40;;
13571;SDS011;6857;53.484;10.216;2023-01-13T01:42:58;3.97;;;1.47;;
13571;SDS011;6857;53.484;10.216;2023-01-13T01:45:43;9.30;;;1.47;;
13571;SDS011;6857;53.484;10.216;2023-01-13T01:48:09;7.87;;;1.50;;
13571;SDS011;6857;53.484;10.216;2023-01-13T01:50:35;4.57;;;1.50;;
13571;SDS011;6857;53.484;10.216;2023-01-13T01:53:04;8.33;;;1.40;;
13571;SDS011;6857;53.484;10.216;2023-01-13T01:55:32;6.00;;;1.47;;
13571;SDS011;6857;53.484;10.216;2023-01-13T01:58:04;5.77;;;1.40;;
13571;SDS011;6857;53.484;10.216;2023-01-13T02:00:30;5.63;;;1.40;;
13571;SDS011;6857;53.484;10.216;2023-01-13T02:02:56;4.43;;;1.23;;
13571;SDS011;6857;53.484;10.216;2023-01-13T02:05:24;5.60;;;1.20;;
13571;SDS011;6857;53.484;10.216;2023-01-13T02:07:50;4.83;;;1.10;;
13571;SDS011;6857;53.484;10.216;2023-01-13T02:10:18;4.23;;;1.13;;
13571;SDS011;6857;53.484;10.216;2023-01-13T02:12:44;3.03;;;0.70;;
13571;SDS011;6857;53.484;10.216;2023-01-13T02:15:12;3.67;;;1.23;;
13571;SDS011;6857;53.484;10.216;2023-01-13T02:26:04;5.23;;;1.40;;
13571;SDS011;6857;53.484;10.216;2023-01-13T02:31:40;9.23;;;1.77;;
13571;SDS011;6857;53.484;10.216;2023-01-13T02:36:36;6.87;;;1.37;;
13571;SDS011;6857;53.484;10.216;2023-01-13T02:41:51;6.63;;;1.67;;
13571;SDS011;6857;53.484;10.216;2023-01-13T02:44:41;6.00;;;1.60;;
13571;SDS011;6857;53.484;10.216;2023-01-13T02:47:19;6.70;;;1.50;;
13571;SDS011;6857;53.484;10.216;2023-01-13T02:49:49;6.73;;;1.60;;
13571;SDS011;6857;53.484;10.216;2023-01-13T02:52:20;9.07;;;1.83;;
13571;SDS011;6857;53.484;10.216;2023-01-13T02:54:48;4.40;;;1.47;;
13571;SDS011;6857;53.484;10.216;2023-01-13T02:57:16;5.90;;;1.60;;
13571;SDS011;6857;53.484;10.216;2023-01-13T02:59:42;4.20;;;1.50;;
13571;SDS011;6857;53.484;10.216;2023-01-13T03:02:10;8.23;;;1.40;;
13571;SDS011;6857;53.484;10.216;2023-01-13T03:04:44;6.13;;;1.67;;
13571;SDS011;6857;53.484;10.216;2023-01-13T03:07:33;3.63;;;1.50;;
13571;SDS011;6857;53.484;10.216;2023-01-13T03:15:23;6.93;;;1.47;;
13571;SDS011;6857;53.484;10.216;2023-01-13T03:18:01;7.37;;;2.07;;
13571;SDS011;6857;53.484;10.216;2023-01-13T03:20:32;6.03;;;1.73;;
13571;SDS011;6857;53.484;10.216;2023-01-13T03:23:02;7.00;;;1.70;;
13571;SDS011;6857;53.484;10.216;2023-01-13T03:25:31;10.83;;;1.80;;
13571;SDS011;6857;53.484;10.216;2023-01-13T03:28:07;11.37;;;1.97;;
13571;SDS011;6857;53.484;10.216;2023-01-13T03:30:43;8.03;;;2.20;;
13571;SDS011;6857;53.484;10.216;2023-01-13T03:33:13;9.00;;;2.10;;
13571;SDS011;6857;53.484;10.216;2023-01-13T03:35:44;7.33;;;2.03;;
13571;SDS011;6857;53.484;10.216;2023-01-13T03:38:12;10.70;;;2.30;;
13571;SDS011;6857;53.484;10.216;2023-01-13T03:40:40;11.27;;;2.27;;
13571;SDS011;6857;53.484;10.216;2023-01-13T03:43:09;12.53;;;2.00;;
13571;SDS011;6857;53.484;10.216;2023-01-13T03:46:03;12.63;;;2.37;;
13571;SDS011;6857;53.484;10.216;2023-01-13T03:48:32;13.33;;;2.23;;
13571;SDS011;6857;53.484;10.216;2023-01-13T03:51:02;10.77;;;1.83;;
13571;SDS011;6857;53.484;10.216;2023-01-13T03:53:31;9.50;;;2.67;;
13571;SDS011;6857;53.484;10.216;2023-01-13T03:56:04;11.80;;;1.97;;
13571;SDS011;6857;53.484;10.216;2023-01-13T03:58:32;11.37;;;2.63;;
13571;SDS011;6857;53.484;10.216;2023-01-13T04:01:02;9.23;;;2.00;;
13571;SDS011;6857;53.484;10.216;2023-01-13T04:06:49;8.73;;;1.90;;
13571;SDS011;6857;53.484;10.216;2023-01-13T04:08:51;15.50;;;2.50;;
13571;SDS011;6857;53.484;10.216;2023-01-13T04:11:20;14.97;;;2.20;;
13571;SDS011;6857;53.484;10.216;2023-01-13T04:13:50;11.17;;;2.30;;
13571;SDS011;6857;53.484;10.216;2023-01-13T04:16:17;16.23;;;2.87;;
13571;SDS011;6857;53.484;10.216;2023-01-13T04:18:43;9.30;;;2.70;;
13571;SDS011;6857;53.484;10.216;2023-01-13T04:21:09;10.80;;;2.50;;
13571;SDS011;6857;53.484;10.216;2023-01-13T04:23:36;13.43;;;2.70;;
13571;SDS011;6857;53.484;10.216;2023-01-13T04:26:02;11.87;;;2.77;;
13571;SDS011;6857;53.484;10.216;2023-01-13T04:28:28;14.57;;;3.13;;
13571;SDS011;6857;53.484;10.216;2023-01-13T04:30:53;14.47;;;2.80;;
13571;SDS011;6857;53.484;10.216;2023-01-13T04:33:19;12.40;;;2.10;;
13571;SDS011;6857;53.484;10.216;2023-01-13T04:35:46;13.07;;;2.63;;
13571;SDS011;6857;53.484;10.216;2023-01-13T04:38:13;12.10;;;2.73;;
13571;SDS011;6857;53.484;10.216;2023-01-13T04:40:39;10.30;;;2.10;;
13571;SDS011;6857;53.484;10.216;2023-01-13T04:43:05;10.77;;;2.23;;
13571;SDS011;6857;53.484;10.216;2023-01-13T04:45:31;17.13;;;2.77;;
13571;SDS011;6857;53.484;10.216;2023-01-13T04:47:57;15.57;;;2.90;;
13571;SDS011;6857;53.484;10.216;2023-01-13T04:50:23;11.77;;;2.53;;
13571;SDS011;6857;53.484;10.216;2023-01-13T04:52:50;11.80;;;2.50;;
13571;SDS011;6857;53.484;10.216;2023-01-13T04:55:16;16.50;;;2.43;;
13571;SDS011;6857;53.484;10.216;2023-01-13T04:57:42;10.20;;;2.67;;
13571;SDS011;6857;53.484;10.216;2023-01-13T05:00:08;14.30;;;2.47;;
13571;SDS011;6857;53.484;10.216;2023-01-13T05:02:35;14.17;;;2.70;;
13571;SDS011;6857;53.484;10.216;2023-01-13T05:05:01;12.03;;;3.10;;
13571;SDS011;6857;53.484;10.216;2023-01-13T05:07:27;7.93;;;2.50;;
13571;SDS011;6857;53.484;10.216;2023-01-13T05:09:53;14.40;;;3.40;;
13571;SDS011;6857;53.484;10.216;2023-01-13T05:12:19;18.60;;;2.80;;
13571;SDS011;6857;53.484;10.216;2023-01-13T05:15:04;10.50;;;2.70;;
13571;SDS011;6857;53.484;10.216;2023-01-13T05:17:49;12.23;;;2.60;;
13571;SDS011;6857;53.484;10.216;2023-01-13T05:20:15;13.63;;;2.90;;
13571;SDS011;6857;53.484;10.216;2023-01-13T05:22:42;13.67;;;2.60;;
13571;SDS011;6857;53.484;10.216;2023-01-13T05:25:27;13.93;;;3.20;;
13571;SDS011;6857;53.484;10.216;2023-01-13T05:27:57;17.23;;;3.30;;
13571;SDS011;6857;53.484;10.216;2023-01-13T05:30:27;15.10;;;3.10;;
13571;SDS011;6857;53.484;10.216;2023-01-13T05:32:54;21.10;;;3.57;;
13571;SDS011;6857;53.484;10.216;2023-01-13T05:35:20;13.00;;;2.93;;
13571;SDS011;6857;53.484;10.216;2023-01-13T05:37:46;15.00;;;2.60;;
13571;SDS011;6857;53.484;10.216;2023-01-13T05:40:13;13.80;;;2.83;;
13571;SDS011;6857;53.484;10.216;2023-01-13T05:43:12;13.07;;;3.13;;
13571;SDS011;6857;53.484;10.216;2023-01-13T05:45:50;16.23;;;3.30;;
13571;SDS011;6857;53.484;10.216;2023-01-13T05:48:17;19.30;;;3.10;;
13571;SDS011;6857;53.484;10.216;2023-01-13T05:50:44;15.57;;;3.00;;
13571;SDS011;6857;53.484;10.216;2023-01-13T05:53:10;10.60;;;2.43;;
13571;SDS011;6857;53.484;10.216;2023-01-13T05:55:39;15.07;;;3.63;;
13571;SDS011;6857;53.484;10.216;2023-01-13T05:58:08;8.00;;;2.47;;
13571;SDS011;6857;53.484;10.216;2023-01-13T06:00:34;17.03;;;3.10;;
13571;SDS011;6857;53.484;10.216;2023-01-13T06:03:00;15.80;;;3.30;;
13571;SDS011;6857;53.484;10.216;2023-01-13T06:05:27;13.03;;;3.03;;
13571;SDS011;6857;53.484;10.216;2023-01-13T06:07:56;14.43;;;3.03;;
13571;SDS011;6857;53.484;10.216;2023-01-13T06:10:22;16.20;;;3.23;;
13571;SDS011;6857;53.484;10.216;2023-01-13T06:12:48;11.77;;;2.87;;
13571;SDS011;6857;53.484;10.216;2023-01-13T06:15:14;12.00;;;3.37;;
13571;SDS011;6857;53.484;10.216;2023-01-13T06:17:40;14.77;;;4.00;;
13571;SDS011;6857;53.484;10.216;2023-01-13T06:20:06;18.67;;;3.57;;
13571;SDS011;6857;53.484;10.216;2023-01-13T06:22:33;15.67;;;5.00;;
13571;SDS011;6857;53.484;10.216;2023-01-13T06:25:03;17.57;;;5.33;;
13571;SDS011;6857;53.484;10.216;2023-01-13T06:27:30;11.13;;;3.40;;
13571;SDS011;6857;53.484;10.216;2023-01-13T06:29:56;16.50;;;3.40;;
13571;SDS011;6857;53.484;10.216;2023-01-13T06:32:27;15.53;;;3.73;;
13571;SDS011;6857;53.484;10.216;2023-01-13T06:34:55;16.67;;;4.13;;
13571;SDS011;6857;53.484;10.216;2023-01-13T06:37:24;17.53;;;3.30;;
13571;SDS011;6857;53.484;10.216;2023-01-13T06:39:51;10.87;;;3.00;;
13571;SDS011;6857;53.484;10.216;2023-01-13T06:42:22;12.63;;;3.00;;
13571;SDS011;6857;53.484;10.216;2023-01-13T06:45:06;11.50;;;2.93;;
13571;SDS011;6857;53.484;10.216;2023-01-13T06:47:32;16.03;;;3.20;;
13571;SDS011;6857;53.484;10.216;2023-01-13T06:49:58;17.57;;;3.33;;
13571;SDS011;6857;53.484;10.216;2023-01-13T06:52:24;14.33;;;4.00;;
13571;SDS011;6857;53.484;10.216;2023-01-13T06:54:54;15.40;;;3.40;;
13571;SDS011;6857;53.484;10.216;2023-01-13T06:57:20;15.50;;;3.87;;
13571;SDS011;6857;53.484;10.216;2023-01-13T06:59:46;14.40;;;4.07;;
13571;SDS011;6857;53.484;10.216;2023-01-13T07:02:12;14.33;;;3.83;;
13571;SDS011;6857;53.484;10.216;2023-01-13T07:04:37;14.33;;;3.10;;
13571;SDS011;6857;53.484;10.216;2023-01-13T07:07:03;13.83;;;3.53;;
13571;SDS011;6857;53.484;10.216;2023-01-13T07:09:29;16.87;;;3.30;;
13571;SDS011;6857;53.484;10.216;2023-01-13T07:11:55;13.63;;;3.70;;
13571;SDS011;6857;53.484;10.216;2023-01-13T07:14:21;13.83;;;4.10;;
13571;SDS011;6857;53.484;10.216;2023-01-13T07:17:06;18.07;;;3.77;;
13571;SDS011;6857;53.484;10.216;2023-01-13T07:19:32;14.20;;;3.40;;
13571;SDS011;6857;53.484;10.216;2023-01-13T07:21:58;12.83;;;3.40;;
13571;SDS011;6857;53.484;10.216;2023-01-13T07:24:24;13.00;;;3.50;;
13571;SDS011;6857;53.484;10.216;2023-01-13T07:26:50;18.13;;;3.63;;
13571;SDS011;6857;53.484;10.216;2023-01-13T07:29:16;15.67;;;4.30;;
13571;SDS011;6857;53.484;10.216;2023-01-13T07:31:42;17.63;;;3.27;;
13571;SDS011;6857;53.484;10.216;2023-01-13T07:34:08;19.07;;;4.40;;
13571;SDS011;6857;53.484;10.216;2023-01-13T07:36:34;13.47;;;3.60;;
13571;SDS011;6857;53.484;10.216;2023-01-13T07:39:00;15.97;;;3.27;;
13571;SDS011;6857;53.484;10.216;2023-01-13T07:41:26;18.13;;;3.23;;
13571;SDS011;6857;53.484;10.216;2023-01-13T07:44:11;14.47;;;3.10;;
13571;SDS011;6857;53.484;10.216;2023-01-13T07:46:37;17.53;;;3.73;;
13571;SDS011;6857;53.484;10.216;2023-01-13T07:49:03;15.17;;;4.47;;
13571;SDS011;6857;53.484;10.216;2023-01-13T07:51:29;12.97;;;3.33;;
13571;SDS011;6857;53.484;10.216;2023-01-13T07:53:55;11.77;;;2.40;;
13571;SDS011;6857;53.484;10.216;2023-01-13T07:56:21;21.03;;;3.47;;
13571;SDS011;6857;53.484;10.216;2023-01-13T07:58:48;16.47;;;3.60;;
13571;SDS011;6857;53.484;10.216;2023-01-13T08:01:17;18.77;;;3.80;;
13571;SDS011;6857;53.484;10.216;2023-01-13T08:03:43;20.20;;;3.27;;
13571;SDS011;6857;53.484;10.216;2023-01-13T08:06:09;22.67;;;4.13;;
13571;SDS011;6857;53.484;10.216;2023-01-13T08:08:36;13.23;;;3.47;;
13571;SDS011;6857;53.484;10.216;2023-01-13T08:11:03;13.73;;;3.87;;
13571;SDS011;6857;53.484;10.216;2023-01-13T08:13:29;17.30;;;3.57;;
13571;SDS011;6857;53.484;10.216;2023-01-13T08:15:59;15.07;;;3.40;;
13571;SDS011;6857;53.484;10.216;2023-01-13T08:18:25;20.13;;;3.97;;
13571;SDS011;6857;53.484;10.216;2023-01-13T08:20:52;20.27;;;4.20;;
13571;SDS011;6857;53.484;10.216;2023-01-13T08:23:18;13.90;;;3.10;;
13571;SDS011;6857;53.484;10.216;2023-01-13T08:25:44;14.23;;;3.87;;
13571;SDS011;6857;53.484;10.216;2023-01-13T08:28:11;14.17;;;3.90;;
13571;SDS011;6857;53.484;10.216;2023-01-13T08:30:37;19.20;;;3.57;;
13571;SDS011;6857;53.484;10.216;2023-01-13T08:33:05;18.00;;;3.37;;
13571;SDS011;6857;53.484;10.216;2023-01-13T08:35:31;17.20;;;3.20;;
13571;SDS011;6857;53.484;10.216;2023-01-13T08:37:57;16.23;;;2.90;;
13571;SDS011;6857;53.484;10.216;2023-01-13T08:40:23;18.60;;;3.70;;
13571;SDS011;6857;53.484;10.216;2023-01-13T08:42:49;21.20;;;4.00;;
13571;SDS011;6857;53.484;10.216;2023-01-13T08:45:16;20.90;;;3.47;;
13571;SDS011;6857;53.484;10.216;2023-01-13T08:47:42;12.80;;;2.83;;
13571;SDS011;6857;53.484;10.216;2023-01-13T08:50:09;13.10;;;2.87;;
13571;SDS011;6857;53.484;10.216;2023-01-13T08:52:35;15.50;;;3.33;;
13571;SDS011;6857;53.484;10.216;2023-01-13T08:55:01;15.27;;;3.57;;
13571;SDS011;6857;53.484;10.216;2023-01-13T08:57:27;13.40;;;3.10;;
13571;SDS011;6857;53.484;10.216;2023-01-13T08:59:53;9.83;;;2.90;;
13571;SDS011;6857;53.484;10.216;2023-01-13T09:02:20;19.40;;;3.37;;
13571;SDS011;6857;53.484;10.216;2023-01-13T09:04:46;11.83;;;2.57;;
13571;SDS011;6857;53.484;10.216;2023-01-13T09:07:12;12.83;;;2.90;;
13571;SDS011;6857;53.484;10.216;2023-01-13T09:09:38;18.47;;;3.53;;
13571;SDS011;6857;53.484;10.216;2023-01-13T09:12:05;16.53;;;3.40;;
13571;SDS011;6857;53.484;10.216;2023-01-13T09:14:49;17.57;;;3.33;;
13571;SDS011;6857;53.484;10.216;2023-01-13T09:17:15;12.33;;;2.40;;
13571;SDS011;6857;53.484;10.216;2023-01-13T09:19:42;17.80;;;2.87;;
13571;SDS011;6857;53.484;10.216;2023-01-13T09:22:13;11.97;;;2.57;;
13571;SDS011;6857;53.484;10.216;2023-01-13T09:24:39;13.63;;;3.10;;
13571;SDS011;6857;53.484;10.216;2023-01-13T09:27:05;10.33;;;2.60;;
13571;SDS011;6857;53.484;10.216;2023-01-13T09:29:31;11.50;;;2.23;;
13571;SDS011;6857;53.484;10.216;2023-01-13T09:31:57;12.53;;;2.50;;
13571;SDS011;6857;53.484;10.216;2023-01-13T09:34:23;16.37;;;3.03;;
13571;SDS011;6857;53.484;10.216;2023-01-13T09:37:08;13.97;;;2.30;;
13571;SDS011;6857;53.484;10.216;2023-01-13T09:39:34;11.83;;;2.53;;
13571;SDS011;6857;53.484;10.216;2023-01-13T09:42:01;13.23;;;2.30;;
13571;SDS011;6857;53.484;10.216;2023-01-13T09:44:57;10.53;;;2.50;;
13571;SDS011;6857;53.484;10.216;2023-01-13T09:47:29;12.67;;;2.23;;
13571;SDS011;6857;53.484;10.216;2023-01-13T09:49:59;9.23;;;2.10;;
13571;SDS011;6857;53.484;10.216;2023-01-13T09:52:27;11.17;;;2.23;;
13571;SDS011;6857;53.484;10.216;2023-01-13T09:55:00;11.63;;;2.53;;
13571;SDS011;6857;53.484;10.216;2023-01-13T09:57:27;11.60;;;2.47;;
13571;SDS011;6857;53.484;10.216;2023-01-13T09:59:55;8.37;;;2.17;;
13571;SDS011;6857;53.484;10.216;2023-01-13T10:05:11;11.47;;;2.37;;
13571;SDS011;6857;53.484;10.216;2023-01-13T10:07:38;7.23;;;1.93;;
13571;SDS011;6857;53.484;10.216;2023-01-13T10:10:07;10.10;;;2.33;;
13571;SDS011;6857;53.484;10.216;2023-01-13T10:12:35;9.17;;;2.57;;
13571;SDS011;6857;53.484;10.216;2023-01-13T10:15:20;9.87;;;1.80;;
13571;SDS011;6857;53.484;10.216;2023-01-13T10:18:05;9.73;;;2.03;;
13571;SDS011;6857;53.484;10.216;2023-01-13T10:20:34;9.00;;;1.87;;
13571;SDS011;6857;53.484;10.216;2023-01-13T10:25:55;10.53;;;2.37;;
13571;SDS011;6857;53.484;10.216;2023-01-13T10:28:25;10.70;;;1.97;;
13571;SDS011;6857;53.484;10.216;2023-01-13T10:30:51;9.63;;;1.90;;
13571;SDS011;6857;53.484;10.216;2023-01-13T10:33:18;9.47;;;1.90;;
13571;SDS011;6857;53.484;10.216;2023-01-13T10:35:49;6.50;;;1.87;;
13571;SDS011;6857;53.484;10.216;2023-01-13T10:38:20;5.97;;;1.93;;
13571;SDS011;6857;53.484;10.216;2023-01-13T10:40:47;8.47;;;2.20;;
13571;SDS011;6857;53.484;10.216;2023-01-13T10:43:13;10.17;;;2.00;;
13571;SDS011;6857;53.484;10.216;2023-01-13T10:45:39;5.67;;;1.40;;
13571;SDS011;6857;53.484;10.216;2023-01-13T10:48:06;8.27;;;2.40;;
13571;SDS011;6857;53.484;10.216;2023-01-13T10:50:35;7.27;;;2.17;;
13571;SDS011;6857;53.484;10.216;2023-01-13T10:53:08;8.33;;;2.40;;
13571;SDS011;6857;53.484;10.216;2023-01-13T10:55:41;7.03;;;1.73;;
13571;SDS011;6857;53.484;10.216;2023-01-13T10:58:11;9.17;;;2.57;;
13571;SDS011;6857;53.484;10.216;2023-01-13T11:00:38;7.10;;;2.00;;
13571;SDS011;6857;53.484;10.216;2023-01-13T11:05:36;10.13;;;1.97;;
13571;SDS011;6857;53.484;10.216;2023-01-13T11:08:02;6.67;;;2.43;;
13571;SDS011;6857;53.484;10.216;2023-01-13T11:10:29;9.63;;;2.73;;
13571;SDS011;6857;53.484;10.216;2023-01-13T11:15:38;9.67;;;1.80;;
13571;SDS011;6857;53.484;10.216;2023-01-13T11:18:12;7.97;;;1.97;;
13571;SDS011;6857;53.484;10.216;2023-01-13T11:20:41;9.07;;;2.10;;
13571;SDS011;6857;53.484;10.216;2023-01-13T11:23:11;9.30;;;2.20;;
13571;SDS011;6857;53.484;10.216;2023-01-13T11:25:40;10.00;;;2.10;;
13571;SDS011;6857;53.484;10.216;2023-01-13T11:30:48;12.27;;;2.40;;
13571;SDS011;6857;53.484;10.216;2023-01-13T11:33:34;8.80;;;2.27;;
13571;SDS011;6857;53.484;10.216;2023-01-13T11:38:36;10.23;;;2.50;;
13571;SDS011;6857;53.484;10.216;2023-01-13T11:41:17;10.27;;;2.80;;
13571;SDS011;6857;53.484;10.216;2023-01-13T11:43:47;8.73;;;2.20;;
13571;SDS011;6857;53.484;10.216;2023-01-13T11:46:14;9.33;;;2.47;;
13571;SDS011;6857;53.484;10.216;2023-01-13T11:48:41;13.73;;;2.77;;
13571;SDS011;6857;53.484;10.216;2023-01-13T11:51:16;8.90;;;2.20;;
13571;SDS011;6857;53.484;10.216;2023-01-13T12:02:01;10.50;;;2.40;;
13571;SDS011;6857;53.484;10.216;2023-01-13T12:07:05;10.50;;;2.50;;
13571;SDS011;6857;53.484;10.216;2023-01-13T12:09:40;12.17;;;3.07;;
13571;SDS011;6857;53.484;10.216;2023-01-13T12:12:12;6.20;;;2.03;;
13571;SDS011;6857;53.484;10.216;2023-01-13T12:17:42;7.07;;;1.57;;
13571;SDS011;6857;53.484;10.216;2023-01-13T12:20:28;7.67;;;2.40;;
13571;SDS011;6857;53.484;10.216;2023-01-13T12:22:56;8.67;;;2.00;;
13571;SDS011;6857;53.484;10.216;2023-01-13T12:26:26;6.77;;;1.90;;
13571;SDS011;6857;53.484;10.216;2023-01-13T12:28:23;8.47;;;1.97;;
13571;SDS011;6857;53.484;10.216;2023-01-13T12:30:56;9.77;;;2.00;;
13571;SDS011;6857;53.484;10.216;2023-01-13T12:33:41;11.23;;;2.53;;
13571;SDS011;6857;53.484;10.216;2023-01-13T12:36:24;5.63;;;1.57;;
13571;SDS011;6857;53.484;10.216;2023-01-13T12:44:22;8.43;;;2.07;;
13571;SDS011;6857;53.484;10.216;2023-01-13T12:46:49;12.30;;;1.90;;
13571;SDS011;6857;53.484;10.216;2023-01-13T12:49:20;9.40;;;2.10;;
13571;SDS011;6857;53.484;10.216;2023-01-13T12:54:30;10.60;;;2.43;;
13571;SDS011;6857;53.484;10.216;2023-01-13T12:56:57;8.43;;;2.43;;
13571;SDS011;6857;53.484;10.216;2023-01-13T13:01:50;10.40;;;2.43;;
13571;SDS011;6857;53.484;10.216;2023-01-13T13:04:17;9.57;;;2.00;;
13571;SDS011;6857;53.484;10.216;2023-01-13T13:06:47;8.20;;;2.07;;
13571;SDS011;6857;53.484;10.216;2023-01-13T13:09:28;10.53;;;2.30;;
13571;SDS011;6857;53.484;10.216;2023-01-13T13:11:56;10.20;;;2.23;;
13571;SDS011;6857;53.484;10.216;2023-01-13T13:17:04;6.20;;;2.00;;
13571;SDS011;6857;53.484;10.216;2023-01-13T13:24:31;11.77;;;2.43;;
13571;SDS011;6857;53.484;10.216;2023-01-13T13:26:57;9.47;;;2.73;;
13571;SDS011;6857;53.484;10.216;2023-01-13T13:29:42;8.00;;;1.83;;
13571;SDS011;6857;53.484;10.216;2023-01-13T13:32:14;12.10;;;2.10;;
13571;SDS011;6857;53.484;10.216;2023-01-13T13:34:57;11.37;;;2.53;;
13571;SDS011;6857;53.484;10.216;2023-01-13T13:40:31;7.27;;;1.93;;
13571;SDS011;6857;53.484;10.216;2023-01-13T13:43:16;9.43;;;2.77;;
13571;SDS011;6857;53.484;10.216;2023-01-13T13:46:10;9.60;;;1.77;;
13571;SDS011;6857;53.484;10.216;2023-01-13T13:49:00;7.40;;;1.90;;
13571;SDS011;6857;53.484;10.216;2023-01-13T13:51:27;9.93;;;2.50;;
13571;SDS011;6857;53.484;10.216;2023-01-13T13:53:55;9.97;;;1.80;;
13571;SDS011;6857;53.484;10.216;2023-01-13T13:56:23;9.13;;;1.80;;
13571;SDS011;6857;53.484;10.216;2023-01-13T13:58:50;6.53;;;1.97;;
13571;SDS011;6857;53.484;10.216;2023-01-13T14:01:23;12.13;;;2.53;;
13571;SDS011;6857;53.484;10.216;2023-01-13T14:09:16;7.60;;;2.37;;
13571;SDS011;6857;53.484;10.216;2023-01-13T14:11:52;8.93;;;1.73;;
13571;SDS011;6857;53.484;10.216;2023-01-13T14:14:18;6.10;;;1.97;;
13571;SDS011;6857;53.484;10.216;2023-01-13T14:16:45;6.30;;;2.03;;
13571;SDS011;6857;53.484;10.216;2023-01-13T14:19:30;5.60;;;1.67;;
13571;SDS011;6857;53.484;10.216;2023-01-13T14:21:58;5.27;;;1.90;;
13571;SDS011;6857;53.484;10.216;2023-01-13T14:24:24;6.43;;;2.10;;
13571;SDS011;6857;53.484;10.216;2023-01-13T14:26:51;5.47;;;1.50;;
13571;SDS011;6857;53.484;10.216;2023-01-13T14:29:18;8.53;;;1.83;;
13571;SDS011;6857;53.484;10.216;2023-01-13T14:31:45;11.47;;;1.80;;
13571;SDS011;6857;53.484;10.216;2023-01-13T14:34:12;6.67;;;1.87;;
13571;SDS011;6857;53.484;10.216;2023-01-13T14:36:38;6.10;;;1.63;;
13571;SDS011;6857;53.484;10.216;2023-01-13T14:46:49;7.00;;;1.60;;
13571;SDS011;6857;53.484;10.216;2023-01-13T14:49:22;7.33;;;1.70;;
13571;SDS011;6857;53.484;10.216;2023-01-13T14:51:49;9.03;;;2.50;;
13571;SDS011;6857;53.484;10.216;2023-01-13T14:59:48;7.00;;;2.20;;
13571;SDS011;6857;53.484;10.216;2023-01-13T15:02:27;8.70;;;2.30;;
13571;SDS011;6857;53.484;10.216;2023-01-13T15:10:36;5.87;;;1.60;;
13571;SDS011;6857;53.484;10.216;2023-01-13T15:15:56;4.43;;;1.83;;
13571;SDS011;6857;53.484;10.216;2023-01-13T15:18:23;6.20;;;1.63;;
13571;SDS011;6857;53.484;10.216;2023-01-13T15:20:49;6.80;;;2.03;;
13571;SDS011;6857;53.484;10.216;2023-01-13T15:23:15;9.17;;;2.60;;
13571;SDS011;6857;53.484;10.216;2023-01-13T15:25:42;8.67;;;1.87;;
13571;SDS011;6857;53.484;10.216;2023-01-13T15:28:19;11.40;;;2.10;;
13571;SDS011;6857;53.484;10.216;2023-01-13T15:30:46;7.10;;;2.00;;
13571;SDS011;6857;53.484;10.216;2023-01-13T15:33:12;4.13;;;1.80;;
13571;SDS011;6857;53.484;10.216;2023-01-13T15:35:40;9.33;;;2.00;;
13571;SDS011;6857;53.484;10.216;2023-01-13T15:38:13;9.63;;;2.10;;
13571;SDS011;6857;53.484;10.216;2023-01-13T15:40:40;9.47;;;2.10;;
13571;SDS011;6857;53.484;10.216;2023-01-13T15:43:10;7.40;;;2.00;;
13571;SDS011;6857;53.484;10.216;2023-01-13T15:45:55;9.33;;;2.23;;
13571;SDS011;6857;53.484;10.216;2023-01-13T15:48:40;7.50;;;1.70;;
13571;SDS011;6857;53.484;10.216;2023-01-13T15:51:05;7.57;;;2.27;;
13571;SDS011;6857;53.484;10.216;2023-01-13T15:53:31;10.33;;;2.10;;
13571;SDS011;6857;53.484;10.216;2023-01-13T15:56:00;7.77;;;2.10;;
13571;SDS011;6857;53.484;10.216;2023-01-13T15:58:27;10.00;;;2.57;;
13571;SDS011;6857;53.484;10.216;2023-01-13T16:00:56;5.17;;;2.20;;
13571;SDS011;6857;53.484;10.216;2023-01-13T16:03:22;10.37;;;2.60;;
13571;SDS011;6857;53.484;10.216;2023-01-13T16:05:47;5.53;;;1.97;;
13571;SDS011;6857;53.484;10.216;2023-01-13T16:08:17;7.67;;;2.30;;
13571;SDS011;6857;53.484;10.216;2023-01-13T16:10:43;10.63;;;2.43;;
13571;SDS011;6857;53.484;10.216;2023-01-13T16:13:10;8.73;;;2.37;;
13571;SDS011;6857;53.484;10.216;2023-01-13T16:15:37;8.73;;;2.67;;
13571;SDS011;6857;53.484;10.216;2023-01-13T16:18:06;11.70;;;2.43;;
13571;SDS011;6857;53.484;10.216;2023-01-13T16:20:32;7.30;;;2.23;;
13571;SDS011;6857;53.484;10.216;2023-01-13T16:22:59;4.83;;;1.80;;
13571;SDS011;6857;53.484;10.216;2023-01-13T16:25:25;8.67;;;2.13;;
13571;SDS011;6857;53.484;10.216;2023-01-13T16:27:52;9.50;;;2.17;;
13571;SDS011;6857;53.484;10.216;2023-01-13T16:32:43;12.27;;;2.93;;
13571;SDS011;6857;53.484;10.216;2023-01-13T16:35:09;8.77;;;2.40;;
13571;SDS011;6857;53.484;10.216;2023-01-13T16:37:35;6.83;;;2.03;;
13571;SDS011;6857;53.484;10.216;2023-01-13T16:40:01;5.57;;;1.97;;